sensor_id;sensor_type;location;lat;lon;timestamp;pressure;altitude;pressure_sealevel;temperature;humidity
12146;BME280;6136;47.032;15.398;2023-04-01T00:01:16;96277.84;;;7.84;100.00
12146;BME280;6136;47.032;15.398;2023-04-01T00:03:45;96272.94;;;7.67;100.00
12146;BME280;6136;47.032;15.398;2023-04-01T00:06:15;96256.50;;;7.51;100.00
12146;BME280;6136;47.032;15.398;2023-04-01T00:08:45;96276.31;;;7.56;100.00
12146;BME280;6136;47.032;15.398;2023-04-01T00:11:14;96268.53;;;7.55;100.00
12146;BME280;6136;47.032;15.398;2023-04-01T00:13:43;96262.19;;;7.57;100.00
12146;BME280;6136;47.032;15.398;2023-04-01T00:16:12;96264.81;;;7.57;100.00
12146;BME280;6136;47.032;15.398;2023-04-01T00:18:48;96261.56;;;7.54;100.00
12146;BME280;6136;47.032;15.398;2023-04-01T00:21:18;96266.09;;;7.52;100.00
12146;BME280;6136;47.032;15.398;2023-04-01T00:23:48;96258.41;;;7.49;100.00
12146;BME280;6136;47.032;15.398;2023-04-01T00:26:17;96260.94;;;7.50;100.00
12146;BME280;6136;47.032;15.398;2023-04-01T00:28:48;96243.03;;;7.43;100.00
12146;BME280;6136;47.032;15.398;2023-04-01T00:31:17;96248.00;;;7.47;100.00
12146;BME280;6136;47.032;15.398;2023-04-01T00:33:45;96254.81;;;7.50;100.00
12146;BME280;6136;47.032;15.398;2023-04-01T00:36:15;96263.06;;;7.45;100.00
12146;BME280;6136;47.032;15.398;2023-04-01T00:38:44;96259.28;;;7.36;100.00
12146;BME280;6136;47.032;15.398;2023-04-01T00:41:16;96253.41;;;7.33;100.00
12146;BME280;6136;47.032;15.398;2023-04-01T00:43:46;96257.38;;;7.38;100.00
12146;BME280;6136;47.032;15.398;2023-04-01T00:46:15;96253.06;;;7.37;100.00
12146;BME280;6136;47.032;15.398;2023-04-01T00:48:46;96235.06;;;7.31;100.00
12146;BME280;6136;47.032;15.398;2023-04-01T00:51:18;96240.84;;;7.36;100.00
12146;BME280;6136;47.032;15.398;2023-04-01T00:53:50;96233.16;;;7.33;100.00
12146;BME280;6136;47.032;15.398;2023-04-01T00:56:25;96241.06;;;7.33;100.00
12146;BME280;6136;47.032;15.398;2023-04-01T00:58:58;96226.50;;;7.28;100.00
12146;BME280;6136;47.032;15.398;2023-04-01T01:01:29;96230.00;;;7.28;100.00
12146;BME280;6136;47.032;15.398;2023-04-01T01:03:58;96214.81;;;7.19;100.00
12146;BME280;6136;47.032;15.398;2023-04-01T01:06:37;96225.16;;;7.22;100.00
12146;BME280;6136;47.032;15.398;2023-04-01T01:09:15;96218.72;;;7.14;100.00
12146;BME280;6136;47.032;15.398;2023-04-01T01:11:52;96228.84;;;7.20;100.00
12146;BME280;6136;47.032;15.398;2023-04-01T01:14:34;96228.53;;;7.12;100.00
12146;BME280;6136;47.032;15.398;2023-04-01T01:17:10;96217.19;;;7.11;100.00
12146;BME280;6136;47.032;15.398;2023-04-01T01:20:07;96208.00;;;7.04;100.00
12146;BME280;6136;47.032;15.398;2023-04-01T01:23:19;96215.69;;;7.07;100.00
12146;BME280;6136;47.032;15.398;2023-04-01T01:25:59;96209.81;;;7.04;100.00
12146;BME280;6136;47.032;15.398;2023-04-01T01:28:47;96198.72;;;6.98;100.00
12146;BME280;6136;47.032;15.398;2023-04-01T01:31:24;96211.28;;;6.95;100.00
12146;BME280;6136;47.032;15.398;2023-04-01T01:34:00;96212.44;;;6.91;100.00
12146;BME280;6136;47.032;15.398;2023-04-01T01:36:33;96220.13;;;6.94;100.00
12146;BME280;6136;47.032;15.398;2023-04-01T01:39:06;96192.66;;;6.85;100.00
12146;BME280;6136;47.032;15.398;2023-04-01T01:41:36;96206.47;;;6.89;100.00
12146;BME280;6136;47.032;15.398;2023-04-01T01:44:08;96204.53;;;6.91;100.00
12146;BME280;6136;47.032;15.398;2023-04-01T01:46:38;96204.53;;;6.91;100.00
12146;BME280;6136;47.032;15.398;2023-04-01T01:49:07;96202.22;;;6.86;100.00
12146;BME280;6136;47.032;15.398;2023-04-01T01:51:39;96182.66;;;6.78;100.00
12146;BME280;6136;47.032;15.398;2023-04-01T01:54:13;96188.66;;;6.80;100.00
12146;BME280;6136;47.032;15.398;2023-04-01T01:56:43;96191.06;;;6.83;100.00
12146;BME280;6136;47.032;15.398;2023-04-01T01:59:14;96173.69;;;6.80;100.00
12146;BME280;6136;47.032;15.398;2023-04-01T02:01:47;96162.00;;;6.72;100.00
12146;BME280;6136;47.032;15.398;2023-04-01T02:04:17;96168.66;;;6.65;100.00
12146;BME280;6136;47.032;15.398;2023-04-01T02:06:53;96178.66;;;6.72;100.00
12146;BME280;6136;47.032;15.398;2023-04-01T02:09:24;96175.69;;;6.64;100.00
12146;BME280;6136;47.032;15.398;2023-04-01T02:11:56;96185.38;;;6.63;100.00
12146;BME280;6136;47.032;15.398;2023-04-01T02:14:27;96183.91;;;6.59;100.00
12146;BME280;6136;47.032;15.398;2023-04-01T02:17:00;96182.63;;;6.52;100.00
12146;BME280;6136;47.032;15.398;2023-04-01T02:19:33;96173.94;;;6.52;100.00
12146;BME280;6136;47.032;15.398;2023-04-01T02:22:09;96170.84;;;6.45;100.00
12146;BME280;6136;47.032;15.398;2023-04-01T02:24:40;96162.44;;;6.40;100.00
12146;BME280;6136;47.032;15.398;2023-04-01T02:27:10;96171.06;;;6.42;100.00
12146;BME280;6136;47.032;15.398;2023-04-01T02:29:39;96176.00;;;6.34;100.00
12146;BME280;6136;47.032;15.398;2023-04-01T02:32:08;96173.38;;;6.21;100.00
12146;BME280;6136;47.032;15.398;2023-04-01T02:34:38;96183.22;;;6.18;100.00
12146;BME280;6136;47.032;15.398;2023-04-01T02:37:08;96185.13;;;6.16;100.00
12146;BME280;6136;47.032;15.398;2023-04-01T02:39:37;96195.63;;;6.16;100.00
12146;BME280;6136;47.032;15.398;2023-04-01T02:42:05;96193.41;;;6.10;100.00
12146;BME280;6136;47.032;15.398;2023-04-01T02:44:33;96197.94;;;6.08;100.00
12146;BME280;6136;47.032;15.398;2023-04-01T02:47:02;96179.41;;;6.09;100.00
12146;BME280;6136;47.032;15.398;2023-04-01T02:49:31;96185.88;;;6.18;100.00
12146;BME280;6136;47.032;15.398;2023-04-01T02:51:59;96175.75;;;6.12;100.00
12146;BME280;6136;47.032;15.398;2023-04-01T02:54:29;96185.66;;;6.21;100.00
12146;BME280;6136;47.032;15.398;2023-04-01T02:56:58;96189.16;;;6.21;100.00
12146;BME280;6136;47.032;15.398;2023-04-01T02:59:26;96186.63;;;6.20;100.00
12146;BME280;6136;47.032;15.398;2023-04-01T03:01:54;96183.47;;;6.15;100.00
12146;BME280;6136;47.032;15.398;2023-04-01T03:04:23;96192.28;;;6.14;100.00
12146;BME280;6136;47.032;15.398;2023-04-01T03:06:51;96196.59;;;6.15;100.00
12146;BME280;6136;47.032;15.398;2023-04-01T03:09:20;96179.41;;;6.09;100.00
12146;BME280;6136;47.032;15.398;2023-04-01T03:11:49;96196.81;;;6.24;100.00
12146;BME280;6136;47.032;15.398;2023-04-01T03:14:18;96199.16;;;6.29;100.00
12146;BME280;6136;47.032;15.398;2023-04-01T03:16:46;96199.44;;;6.24;100.00
12146;BME280;6136;47.032;15.398;2023-04-01T03:19:15;96199.53;;;6.23;100.00
12146;BME280;6136;47.032;15.398;2023-04-01T03:21:43;96204.59;;;6.13;100.00
12146;BME280;6136;47.032;15.398;2023-04-01T03:24:12;96209.44;;;6.19;100.00
12146;BME280;6136;47.032;15.398;2023-04-01T03:26:40;96217.41;;;6.18;100.00
12146;BME280;6136;47.032;15.398;2023-04-01T03:29:11;96221.31;;;6.12;100.00
12146;BME280;6136;47.032;15.398;2023-04-01T03:31:39;96212.13;;;6.05;100.00
12146;BME280;6136;47.032;15.398;2023-04-01T03:34:07;96225.63;;;6.13;100.00
12146;BME280;6136;47.032;15.398;2023-04-01T03:36:36;96217.41;;;6.18;100.00
12146;BME280;6136;47.032;15.398;2023-04-01T03:39:05;96213.31;;;6.14;100.00
12146;BME280;6136;47.032;15.398;2023-04-01T03:41:40;96229.53;;;6.20;100.00
12146;BME280;6136;47.032;15.398;2023-04-01T03:44:08;96210.03;;;6.10;100.00
12146;BME280;6136;47.032;15.398;2023-04-01T03:46:38;96233.94;;;6.20;100.00
12146;BME280;6136;47.032;15.398;2023-04-01T03:49:07;96233.53;;;6.13;100.00
12146;BME280;6136;47.032;15.398;2023-04-01T03:51:39;96241.84;;;6.20;100.00
12146;BME280;6136;47.032;15.398;2023-04-01T03:54:07;96223.84;;;6.14;100.00
12146;BME280;6136;47.032;15.398;2023-04-01T03:56:36;96231.31;;;6.20;100.00
12146;BME280;6136;47.032;15.398;2023-04-01T03:59:06;96241.41;;;6.13;100.00
12146;BME280;6136;47.032;15.398;2023-04-01T04:01:35;96227.06;;;6.05;100.00
12146;BME280;6136;47.032;15.398;2023-04-01T04:04:05;96247.38;;;6.15;100.00
12146;BME280;6136;47.032;15.398;2023-04-01T04:06:33;96226.47;;;6.14;100.00
12146;BME280;6136;47.032;15.398;2023-04-01T04:09:02;96247.09;;;6.20;100.00
12146;BME280;6136;47.032;15.398;2023-04-01T04:11:31;96232.66;;;6.13;100.00
12146;BME280;6136;47.032;15.398;2023-04-01T04:14:00;96239.41;;;6.17;100.00
12146;BME280;6136;47.032;15.398;2023-04-01T04:16:28;96235.84;;;6.18;100.00
12146;BME280;6136;47.032;15.398;2023-04-01T04:19:00;96245.41;;;6.19;100.00
12146;BME280;6136;47.032;15.398;2023-04-01T04:21:30;96252.38;;;6.20;100.00
12146;BME280;6136;47.032;15.398;2023-04-01T04:23:59;96258.47;;;6.20;100.00
12146;BME280;6136;47.032;15.398;2023-04-01T04:26:45;96254.34;;;6.16;100.00
12146;BME280;6136;47.032;15.398;2023-04-01T04:29:13;96249.72;;;6.20;100.00
12146;BME280;6136;47.032;15.398;2023-04-01T04:31:42;96258.38;;;6.22;100.00
12146;BME280;6136;47.032;15.398;2023-04-01T04:34:11;96242.78;;;6.19;100.00
12146;BME280;6136;47.032;15.398;2023-04-01T04:36:42;96242.34;;;6.12;100.00
12146;BME280;6136;47.032;15.398;2023-04-01T04:39:11;96241.50;;;6.12;100.00
12146;BME280;6136;47.032;15.398;2023-04-01T04:41:41;96240.47;;;6.14;100.00
12146;BME280;6136;47.032;15.398;2023-04-01T04:44:09;96224.44;;;6.05;100.00
12146;BME280;6136;47.032;15.398;2023-04-01T04:46:38;96233.81;;;6.09;100.00
12146;BME280;6136;47.032;15.398;2023-04-01T04:49:11;96226.31;;;6.03;100.00
12146;BME280;6136;47.032;15.398;2023-04-01T04:51:41;96221.72;;;6.06;100.00
12146;BME280;6136;47.032;15.398;2023-04-01T04:54:11;96223.16;;;5.98;100.00
12146;BME280;6136;47.032;15.398;2023-04-01T04:57:08;96232.09;;;6.08;100.00
12146;BME280;6136;47.032;15.398;2023-04-01T04:59:44;96225.91;;;6.09;100.00
12146;BME280;6136;47.032;15.398;2023-04-01T05:02:17;96223.94;;;6.12;100.00
12146;BME280;6136;47.032;15.398;2023-04-01T05:04:46;96218.97;;;6.08;100.00
12146;BME280;6136;47.032;15.398;2023-04-01T05:07:16;96233.19;;;6.18;100.00
12146;BME280;6136;47.032;15.398;2023-04-01T05:09:45;96245.31;;;6.20;100.00
12146;BME280;6136;47.032;15.398;2023-04-01T05:12:14;96240.47;;;6.14;100.00
12146;BME280;6136;47.032;15.398;2023-04-01T05:14:56;96246.03;;;6.22;100.00
12146;BME280;6136;47.032;15.398;2023-04-01T05:17:25;96238.81;;;6.26;100.00
12146;BME280;6136;47.032;15.398;2023-04-01T05:19:54;96248.91;;;6.32;100.00
12146;BME280;6136;47.032;15.398;2023-04-01T05:22:24;96240.94;;;6.34;100.00
12146;BME280;6136;47.032;15.398;2023-04-01T05:24:52;96244.72;;;6.30;100.00
12146;BME280;6136;47.032;15.398;2023-04-01T05:27:21;96254.50;;;6.40;100.00
12146;BME280;6136;47.032;15.398;2023-04-01T05:29:50;96245.78;;;6.40;100.00
12146;BME280;6136;47.032;15.398;2023-04-01T05:32:40;96253.81;;;6.51;100.00
12146;BME280;6136;47.032;15.398;2023-04-01T05:35:10;96254.22;;;6.57;100.00
12146;BME280;6136;47.032;15.398;2023-04-01T05:37:40;96259.06;;;6.63;100.00
12146;BME280;6136;47.032;15.398;2023-04-01T05:40:09;96256.97;;;6.69;100.00
12146;BME280;6136;47.032;15.398;2023-04-01T05:42:37;96260.78;;;6.77;100.00
12146;BME280;6136;47.032;15.398;2023-04-01T05:45:07;96256.53;;;6.75;100.00
12146;BME280;6136;47.032;15.398;2023-04-01T05:47:54;96261.75;;;6.89;100.00
12146;BME280;6136;47.032;15.398;2023-04-01T05:50:22;96256.16;;;6.93;100.00
12146;BME280;6136;47.032;15.398;2023-04-01T05:52:53;96264.78;;;7.08;100.00
12146;BME280;6136;47.032;15.398;2023-04-01T05:55:22;96268.69;;;7.15;100.00
12146;BME280;6136;47.032;15.398;2023-04-01T05:57:51;96259.72;;;7.30;100.00
12146;BME280;6136;47.032;15.398;2023-04-01T06:00:19;96263.09;;;7.32;100.00
12146;BME280;6136;47.032;15.398;2023-04-01T06:02:48;96248.66;;;7.25;100.00
12146;BME280;6136;47.032;15.398;2023-04-01T06:05:21;96240.19;;;7.46;100.00
12146;BME280;6136;47.032;15.398;2023-04-01T06:07:51;96245.53;;;7.57;100.00
12146;BME280;6136;47.032;15.398;2023-04-01T06:10:34;96256.91;;;7.70;100.00
12146;BME280;6136;47.032;15.398;2023-04-01T06:13:10;96254.66;;;7.76;100.00
12146;BME280;6136;47.032;15.398;2023-04-01T06:15:51;96260.00;;;7.88;100.00
12146;BME280;6136;47.032;15.398;2023-04-01T06:18:52;96257.59;;;8.08;100.00
12146;BME280;6136;47.032;15.398;2023-04-01T06:21:37;96244.19;;;8.11;100.00
12146;BME280;6136;47.032;15.398;2023-04-01T06:24:26;96246.84;;;8.35;100.00
12146;BME280;6136;47.032;15.398;2023-04-01T06:27:06;96253.84;;;8.47;100.00
12146;BME280;6136;47.032;15.398;2023-04-01T06:29:58;96257.13;;;8.62;100.00
12146;BME280;6136;47.032;15.398;2023-04-01T06:32:40;96256.59;;;8.81;100.00
12146;BME280;6136;47.032;15.398;2023-04-01T06:35:34;96252.16;;;8.81;100.00
12146;BME280;6136;47.032;15.398;2023-04-01T06:44:14;96268.78;;;9.17;100.00
12146;BME280;6136;47.032;15.398;2023-04-01T06:47:18;96269.72;;;9.27;100.00
12146;BME280;6136;47.032;15.398;2023-04-01T06:50:11;96269.50;;;9.30;100.00
12146;BME280;6136;47.032;15.398;2023-04-01T06:53:09;96277.78;;;9.25;100.00
12146;BME280;6136;47.032;15.398;2023-04-01T06:56:02;96272.59;;;9.13;100.00
12146;BME280;6136;47.032;15.398;2023-04-01T06:58:54;96280.56;;;9.24;100.00
12146;BME280;6136;47.032;15.398;2023-04-01T07:01:30;96284.38;;;9.20;100.00
12146;BME280;6136;47.032;15.398;2023-04-01T07:04:02;96281.25;;;9.15;100.00
12146;BME280;6136;47.032;15.398;2023-04-01T07:06:36;96278.34;;;9.07;100.00
12146;BME280;6136;47.032;15.398;2023-04-01T07:09:12;96291.59;;;9.18;100.00
12146;BME280;6136;47.032;15.398;2023-04-01T07:12:18;96299.53;;;9.29;100.00
12146;BME280;6136;47.032;15.398;2023-04-01T07:15:15;96297.69;;;10.30;100.00
12146;BME280;6136;47.032;15.398;2023-04-01T07:17:53;96295.22;;;11.22;100.00
12146;BME280;6136;47.032;15.398;2023-04-01T07:20:26;96303.06;;;11.75;100.00
12146;BME280;6136;47.032;15.398;2023-04-01T07:22:58;96296.38;;;12.40;100.00
12146;BME280;6136;47.032;15.398;2023-04-01T07:26:00;96293.59;;;13.38;95.68
12146;BME280;6136;47.032;15.398;2023-04-01T07:28:51;96306.66;;;13.68;92.72
12146;BME280;6136;47.032;15.398;2023-04-01T07:31:49;96297.78;;;13.40;95.24
12146;BME280;6136;47.032;15.398;2023-04-01T07:34:27;96291.88;;;13.56;92.89
12146;BME280;6136;47.032;15.398;2023-04-01T07:37:01;96307.00;;;13.55;91.96
12146;BME280;6136;47.032;15.398;2023-04-01T07:39:41;96300.94;;;14.27;87.73
12146;BME280;6136;47.032;15.398;2023-04-01T07:42:24;96292.38;;;15.22;83.39
12146;BME280;6136;47.032;15.398;2023-04-01T07:45:00;96306.03;;;15.88;76.94
12146;BME280;6136;47.032;15.398;2023-04-01T07:47:45;96302.50;;;16.14;76.97
12146;BME280;6136;47.032;15.398;2023-04-01T07:50:25;96298.69;;;16.83;71.82
12146;BME280;6136;47.032;15.398;2023-04-01T07:53:05;96305.41;;;17.35;69.56
12146;BME280;6136;47.032;15.398;2023-04-01T07:55:42;96302.41;;;17.46;69.19
12146;BME280;6136;47.032;15.398;2023-04-01T07:58:17;96303.78;;;18.22;64.06
12146;BME280;6136;47.032;15.398;2023-04-01T08:00:57;96295.84;;;18.37;65.45
12146;BME280;6136;47.032;15.398;2023-04-01T08:03:42;96294.66;;;18.78;62.30
12146;BME280;6136;47.032;15.398;2023-04-01T08:06:22;96296.56;;;19.38;59.70
12146;BME280;6136;47.032;15.398;2023-04-01T08:09:00;96301.81;;;19.54;57.84
12146;BME280;6136;47.032;15.398;2023-04-01T08:12:02;96299.34;;;20.70;54.41
12146;BME280;6136;47.032;15.398;2023-04-01T08:15:07;96295.25;;;21.53;51.01
12146;BME280;6136;47.032;15.398;2023-04-01T08:18:28;96300.44;;;21.26;50.81
12146;BME280;6136;47.032;15.398;2023-04-01T08:21:03;96292.50;;;20.53;52.68
12146;BME280;6136;47.032;15.398;2023-04-01T08:23:38;96300.22;;;18.99;56.73
12146;BME280;6136;47.032;15.398;2023-04-01T08:26:17;96296.81;;;19.06;56.00
12146;BME280;6136;47.032;15.398;2023-04-01T08:28:55;96288.44;;;18.78;54.97
12146;BME280;6136;47.032;15.398;2023-04-01T08:31:30;96301.72;;;17.85;59.44
12146;BME280;6136;47.032;15.398;2023-04-01T08:34:02;96306.41;;;17.34;63.42
12146;BME280;6136;47.032;15.398;2023-04-01T08:36:34;96301.72;;;16.88;63.90
12146;BME280;6136;47.032;15.398;2023-04-01T08:39:18;96301.44;;;16.49;64.76
12146;BME280;6136;47.032;15.398;2023-04-01T08:42:24;96303.31;;;16.56;65.60
12146;BME280;6136;47.032;15.398;2023-04-01T08:45:48;96308.44;;;17.24;60.99
12146;BME280;6136;47.032;15.398;2023-04-01T08:48:34;96301.41;;;17.23;61.69
12146;BME280;6136;47.032;15.398;2023-04-01T08:51:27;96302.06;;;16.93;60.78
12146;BME280;6136;47.032;15.398;2023-04-01T08:54:21;96284.75;;;16.55;64.15
12146;BME280;6136;47.032;15.398;2023-04-01T08:57:01;96305.63;;;16.51;64.49
12146;BME280;6136;47.032;15.398;2023-04-01T08:59:55;96296.84;;;16.67;65.24
12146;BME280;6136;47.032;15.398;2023-04-01T09:03:21;96299.03;;;16.80;64.47
12146;BME280;6136;47.032;15.398;2023-04-01T09:06:12;96311.06;;;16.84;64.01
12146;BME280;6136;47.032;15.398;2023-04-01T09:08:57;96320.03;;;16.58;63.12
12146;BME280;6136;47.032;15.398;2023-04-01T09:11:42;96307.47;;;16.51;65.89
12146;BME280;6136;47.032;15.398;2023-04-01T09:14:47;96323.38;;;16.52;64.97
12146;BME280;6136;47.032;15.398;2023-04-01T09:17:49;96321.41;;;16.62;65.05
12146;BME280;6136;47.032;15.398;2023-04-01T09:20:35;96313.78;;;16.92;62.63
12146;BME280;6136;47.032;15.398;2023-04-01T09:26:29;96329.88;;;17.40;60.53
12146;BME280;6136;47.032;15.398;2023-04-01T09:29:19;96337.56;;;17.76;58.20
12146;BME280;6136;47.032;15.398;2023-04-01T09:32:04;96334.91;;;17.76;56.97
12146;BME280;6136;47.032;15.398;2023-04-01T09:34:54;96335.06;;;17.82;57.55
12146;BME280;6136;47.032;15.398;2023-04-01T09:37:35;96331.84;;;17.87;58.19
12146;BME280;6136;47.032;15.398;2023-04-01T09:40:24;96332.19;;;18.00;54.98
12146;BME280;6136;47.032;15.398;2023-04-01T09:43:22;96330.91;;;18.27;53.10
12146;BME280;6136;47.032;15.398;2023-04-01T09:46:10;96333.22;;;17.67;51.56
12146;BME280;6136;47.032;15.398;2023-04-01T09:51:39;96332.38;;;17.58;49.12
12146;BME280;6136;47.032;15.398;2023-04-01T09:54:21;96340.22;;;17.27;51.75
12146;BME280;6136;47.032;15.398;2023-04-01T10:00:44;96334.16;;;16.85;47.93
12146;BME280;6136;47.032;15.398;2023-04-01T10:09:26;96335.22;;;16.50;45.29
12146;BME280;6136;47.032;15.398;2023-04-01T10:12:30;96340.91;;;16.13;47.47
12146;BME280;6136;47.032;15.398;2023-04-01T10:21:55;96341.25;;;16.60;44.69
12146;BME280;6136;47.032;15.398;2023-04-01T10:27:59;96336.53;;;17.12;45.97
12146;BME280;6136;47.032;15.398;2023-04-01T10:31:19;96335.03;;;17.10;43.61
12146;BME280;6136;47.032;15.398;2023-04-01T10:34:33;96342.91;;;17.19;44.00
12146;BME280;6136;47.032;15.398;2023-04-01T10:37:23;96334.13;;;16.68;44.65
12146;BME280;6136;47.032;15.398;2023-04-01T10:40:23;96316.16;;;16.45;45.42
12146;BME280;6136;47.032;15.398;2023-04-01T10:43:37;96336.53;;;16.88;45.40
12146;BME280;6136;47.032;15.398;2023-04-01T10:49:16;96331.84;;;16.48;45.75
12146;BME280;6136;47.032;15.398;2023-04-01T10:59:59;96329.19;;;16.48;44.17
12146;BME280;6136;47.032;15.398;2023-04-01T11:06:59;96335.06;;;17.18;44.32
12146;BME280;6136;47.032;15.398;2023-04-01T11:19:17;96341.25;;;17.67;42.75
12146;BME280;6136;47.032;15.398;2023-04-01T11:22:06;96332.69;;;17.88;42.74
12146;BME280;6136;47.032;15.398;2023-04-01T11:25:06;96332.91;;;18.33;42.11
12146;BME280;6136;47.032;15.398;2023-04-01T11:27:55;96342.78;;;17.77;42.40
12146;BME280;6136;47.032;15.398;2023-04-01T11:30:39;96321.00;;;17.32;42.27
12146;BME280;6136;47.032;15.398;2023-04-01T11:33:15;96327.88;;;17.75;42.96
12146;BME280;6136;47.032;15.398;2023-04-01T11:39:02;96331.88;;;17.38;43.46
12146;BME280;6136;47.032;15.398;2023-04-01T11:41:56;96324.03;;;17.69;41.74
12146;BME280;6136;47.032;15.398;2023-04-01T11:44:58;96325.50;;;17.64;41.96
12146;BME280;6136;47.032;15.398;2023-04-01T11:47:48;96325.00;;;18.32;40.85
12146;BME280;6136;47.032;15.398;2023-04-01T11:50:31;96313.22;;;18.57;40.57
12146;BME280;6136;47.032;15.398;2023-04-01T11:53:35;96306.84;;;18.11;40.56
12146;BME280;6136;47.032;15.398;2023-04-01T11:56:42;96313.22;;;18.57;40.68
12146;BME280;6136;47.032;15.398;2023-04-01T12:02:25;96317.13;;;17.83;40.16
12146;BME280;6136;47.032;15.398;2023-04-01T12:08:01;96312.84;;;18.21;41.20
12146;BME280;6136;47.032;15.398;2023-04-01T12:10:39;96319.72;;;18.54;38.94
12146;BME280;6136;47.032;15.398;2023-04-01T12:13:17;96311.06;;;18.44;39.33
12146;BME280;6136;47.032;15.398;2023-04-01T12:16:03;96318.81;;;18.31;38.59
12146;BME280;6136;47.032;15.398;2023-04-01T12:18:41;96309.91;;;18.39;37.88
12146;BME280;6136;47.032;15.398;2023-04-01T12:21:21;96313.63;;;17.82;38.86
12146;BME280;6136;47.032;15.398;2023-04-01T12:24:14;96317.09;;;17.99;38.60
12146;BME280;6136;47.032;15.398;2023-04-01T12:26:59;96321.34;;;17.77;40.14
12146;BME280;6136;47.032;15.398;2023-04-01T12:29:58;96312.88;;;18.05;41.33
12146;BME280;6136;47.032;15.398;2023-04-01T12:32:37;96312.13;;;17.56;40.46
12146;BME280;6136;47.032;15.398;2023-04-01T12:35:21;96319.41;;;18.10;39.67
12146;BME280;6136;47.032;15.398;2023-04-01T12:38:06;96322.91;;;18.11;39.46
12146;BME280;6136;47.032;15.398;2023-04-01T12:47:00;96318.16;;;17.66;40.76
12146;BME280;6136;47.032;15.398;2023-04-01T12:49:50;96304.09;;;17.31;39.68
12146;BME280;6136;47.032;15.398;2023-04-01T12:52:26;96310.97;;;17.26;39.32
12146;BME280;6136;47.032;15.398;2023-04-01T12:55:13;96311.13;;;17.49;40.73
12146;BME280;6136;47.032;15.398;2023-04-01T12:58:02;96295.38;;;17.13;38.96
12146;BME280;6136;47.032;15.398;2023-04-01T13:00:42;96281.69;;;17.24;38.16
12146;BME280;6136;47.032;15.398;2023-04-01T13:03:24;96304.09;;;17.15;39.82
12146;BME280;6136;47.032;15.398;2023-04-01T13:06:29;96295.06;;;17.08;38.71
12146;BME280;6136;47.032;15.398;2023-04-01T13:09:14;96284.03;;;17.03;37.71
12146;BME280;6136;47.032;15.398;2023-04-01T13:11:57;96288.53;;;16.36;40.31
12146;BME280;6136;47.032;15.398;2023-04-01T13:17:38;96279.69;;;16.36;39.95
12146;BME280;6136;47.032;15.398;2023-04-01T13:20:18;96283.66;;;16.74;39.79
12146;BME280;6136;47.032;15.398;2023-04-01T13:22:59;96276.13;;;16.85;39.57
12146;BME280;6136;47.032;15.398;2023-04-01T13:25:37;96275.81;;;17.04;39.41
12146;BME280;6136;47.032;15.398;2023-04-01T13:28:14;96279.97;;;16.83;39.54
12146;BME280;6136;47.032;15.398;2023-04-01T13:30:50;96278.50;;;16.96;40.05
12146;BME280;6136;47.032;15.398;2023-04-01T13:33:29;96278.66;;;17.19;39.10
12146;BME280;6136;47.032;15.398;2023-04-01T13:36:08;96284.97;;;17.59;38.54
12146;BME280;6136;47.032;15.398;2023-04-01T13:39:01;96276.53;;;18.02;38.36
12146;BME280;6136;47.032;15.398;2023-04-01T13:41:47;96267.06;;;18.61;37.03
12146;BME280;6136;47.032;15.398;2023-04-01T13:44:22;96250.69;;;20.21;33.79
12146;BME280;6136;47.032;15.398;2023-04-01T13:47:10;96249.97;;;20.12;34.92
12146;BME280;6136;47.032;15.398;2023-04-01T13:50:16;96247.66;;;21.66;30.73
12146;BME280;6136;47.032;15.398;2023-04-01T13:53:00;96246.66;;;20.61;33.46
12146;BME280;6136;47.032;15.398;2023-04-01T13:55:52;96246.25;;;19.99;33.46
12146;BME280;6136;47.032;15.398;2023-04-01T13:59:01;96237.09;;;19.41;34.90
12146;BME280;6136;47.032;15.398;2023-04-01T14:01:38;96235.66;;;20.27;30.26
12146;BME280;6136;47.032;15.398;2023-04-01T14:04:31;96225.78;;;19.83;33.19
12146;BME280;6136;47.032;15.398;2023-04-01T14:07:11;96234.94;;;19.59;33.68
12146;BME280;6136;47.032;15.398;2023-04-01T14:09:59;96227.53;;;19.61;33.72
12146;BME280;6136;47.032;15.398;2023-04-01T14:12:34;96229.00;;;19.64;34.10
12146;BME280;6136;47.032;15.398;2023-04-01T14:15:19;96223.91;;;20.64;32.65
12146;BME280;6136;47.032;15.398;2023-04-01T14:18:13;96217.63;;;20.99;31.46
12146;BME280;6136;47.032;15.398;2023-04-01T14:20:49;96222.53;;;21.32;31.48
12146;BME280;6136;47.032;15.398;2023-04-01T14:23:42;96215.63;;;20.29;33.01
12146;BME280;6136;47.032;15.398;2023-04-01T14:26:26;96216.47;;;21.08;32.22
12146;BME280;6136;47.032;15.398;2023-04-01T14:29:10;96208.81;;;20.48;31.50
12146;BME280;6136;47.032;15.398;2023-04-01T14:31:59;96208.81;;;20.48;33.61
12146;BME280;6136;47.032;15.398;2023-04-01T14:34:44;96216.28;;;20.16;33.19
12146;BME280;6136;47.032;15.398;2023-04-01T14:37:55;96209.13;;;19.13;33.26
12146;BME280;6136;47.032;15.398;2023-04-01T14:40:28;96214.75;;;19.26;35.35
12146;BME280;6136;47.032;15.398;2023-04-01T14:43:19;96209.19;;;19.42;36.07
12146;BME280;6136;47.032;15.398;2023-04-01T14:46:01;96211.56;;;19.22;33.83
12146;BME280;6136;47.032;15.398;2023-04-01T14:48:35;96215.56;;;19.12;34.25
12146;BME280;6136;47.032;15.398;2023-04-01T14:51:12;96202.34;;;19.25;33.42
12146;BME280;6136;47.032;15.398;2023-04-01T14:53:53;96208.56;;;19.03;34.00
12146;BME280;6136;47.032;15.398;2023-04-01T14:56:46;96186.75;;;19.20;33.11
12146;BME280;6136;47.032;15.398;2023-04-01T14:59:27;96207.06;;;19.37;32.97
12146;BME280;6136;47.032;15.398;2023-04-01T15:02:01;96202.16;;;19.26;31.93
12146;BME280;6136;47.032;15.398;2023-04-01T15:04:42;96191.47;;;18.81;33.12
12146;BME280;6136;47.032;15.398;2023-04-01T15:07:22;96202.63;;;19.30;31.01
12146;BME280;6136;47.032;15.398;2023-04-01T15:10:04;96198.69;;;18.80;33.84
12146;BME280;6136;47.032;15.398;2023-04-01T15:12:50;96202.19;;;19.04;31.65
12146;BME280;6136;47.032;15.398;2023-04-01T15:15:31;96193.94;;;18.82;32.59
12146;BME280;6136;47.032;15.398;2023-04-01T15:18:08;96201.44;;;18.72;33.44
12146;BME280;6136;47.032;15.398;2023-04-01T15:23:37;96191.75;;;18.63;36.89